createdAt,value
2018-12-04T00:00:41.511Z,0
2018-12-04T00:01:41.535Z,0
2018-12-04T00:02:41.567Z,0
2018-12-04T00:03:41.857Z,0
2018-12-04T00:04:41.855Z,0
2018-12-04T00:05:42.387Z,0
2018-12-04T00:06:41.946Z,0
2018-12-04T00:07:41.412Z,0
2018-12-04T00:08:41.673Z,0
2018-12-04T00:09:41.972Z,0
2018-12-04T00:10:41.982Z,0
2018-12-04T00:11:42.262Z,0
2018-12-04T00:12:41.772Z,0
2018-12-04T00:13:41.800Z,0
2018-12-04T00:14:42.368Z,0
2018-12-04T00:15:41.820Z,0
2018-12-04T00:16:42.360Z,0
2018-12-04T00:17:42.138Z,0
2018-12-04T00:18:42.669Z,0
2018-12-04T00:19:42.458Z,0
2018-12-04T00:20:41.680Z,0
2018-12-04T00:21:42.471Z,0
2018-12-04T00:22:42.243Z,0
2018-12-04T00:23:42.006Z,0
2018-12-04T00:24:42.019Z,0
2018-12-04T00:25:42.305Z,0
2018-12-04T00:26:42.586Z,0
2018-12-04T00:27:42.330Z,0
2018-12-04T00:28:42.116Z,0
2018-12-04T00:29:42.377Z,0
2018-12-04T00:30:42.394Z,0
2018-12-04T00:31:42.160Z,0
2018-12-04T00:32:42.189Z,0
2018-12-04T00:33:42.196Z,0
2018-12-04T00:34:41.969Z,0
2018-12-04T00:35:42.512Z,0
2018-12-04T00:36:42.807Z,0
2018-12-04T00:37:42.817Z,0
2018-12-04T00:38:43.092Z,0
2018-12-04T00:39:42.330Z,0
2018-12-04T00:40:42.090Z,0
2018-12-04T00:41:42.653Z,0
2018-12-04T00:42:42.400Z,0
2018-12-04T00:43:42.421Z,0
2018-12-04T00:44:42.952Z,0
2018-12-04T00:45:42.457Z,0
2018-12-04T00:46:42.213Z,0
2018-12-04T00:47:42.778Z,0
2018-12-04T00:48:42.790Z,0
2018-12-04T00:49:42.548Z,0
2018-12-04T00:50:43.336Z,0
2018-12-04T00:51:42.823Z,0
2018-12-04T00:52:42.614Z,0
2018-12-04T00:53:44.073Z,0
2018-12-04T00:54:43.447Z,0
2018-12-04T00:55:43.191Z,0
2018-12-04T00:56:42.975Z,0
2018-12-04T00:57:43.232Z,0
2018-12-04T00:58:43.256Z,0
2018-12-04T00:59:42.757Z,0
2018-12-04T01:00:42.518Z,0
2018-12-04T01:01:43.061Z,0
2018-12-04T01:02:42.806Z,0
2018-12-04T01:03:42.576Z,0
2018-12-04T01:04:42.861Z,0
2018-12-04T01:05:43.659Z,0
2018-12-04T01:06:42.625Z,0
2018-12-04T01:07:42.660Z,0
2018-12-04T01:08:42.983Z,0
2018-12-04T01:09:42.697Z,0
2018-12-04T01:10:42.708Z,0
2018-12-04T01:11:42.990Z,0
2018-12-04T01:12:43.274Z,0
2018-12-04T01:13:43.581Z,0
2018-12-04T01:14:43.318Z,0
2018-12-04T01:15:43.085Z,0
2018-12-04T01:16:43.370Z,0
2018-12-04T01:17:43.128Z,0
2018-12-04T01:18:43.671Z,0
2018-12-04T01:19:43.439Z,0
2018-12-04T01:20:43.190Z,0
2018-12-04T01:21:42.938Z,0
2018-12-04T01:22:43.745Z,0
2018-12-04T01:23:43.268Z,0
2018-12-04T01:24:43.287Z,0
2018-12-04T01:25:43.288Z,0
2018-12-04T01:26:43.301Z,0
2018-12-04T01:27:43.590Z,0
2018-12-04T01:28:43.138Z,0
2018-12-04T01:29:43.622Z,0
2018-12-04T01:30:43.392Z,0
2018-12-04T01:31:43.934Z,0
2018-12-04T01:32:43.422Z,0
2018-12-04T01:33:43.710Z,0
2018-12-04T01:34:43.783Z,0
2018-12-04T01:35:43.755Z,0
2018-12-04T01:36:43.248Z,0
2018-12-04T01:37:44.059Z,0
2018-12-04T01:38:43.817Z,0
2018-12-04T01:39:43.828Z,0
2018-12-04T01:40:43.862Z,0
2018-12-04T01:41:43.631Z,0
2018-12-04T01:42:44.157Z,0
2018-12-04T01:43:43.917Z,0
2018-12-04T01:44:43.681Z,0
2018-12-04T01:45:44.217Z,0
2018-12-04T01:46:43.985Z,0
2018-12-04T01:47:44.242Z,0
2018-12-04T01:48:43.759Z,0
2018-12-04T01:49:43.786Z,0
2018-12-04T01:50:44.584Z,0
2018-12-04T01:51:43.821Z,0
2018-12-04T01:52:43.851Z,0
2018-12-04T01:53:43.609Z,0
2018-12-04T01:54:43.896Z,0
2018-12-04T01:55:44.162Z,0
2018-12-04T01:56:43.931Z,0
2018-12-04T01:57:44.457Z,0
2018-12-04T01:58:44.228Z,0
2018-12-04T01:59:44.271Z,0
2018-12-04T02:00:43.763Z,0
2018-12-04T02:01:44.049Z,0
2018-12-04T02:02:44.308Z,0
2018-12-04T02:03:44.590Z,0
2018-12-04T02:04:44.340Z,0
2018-12-04T02:05:44.120Z,0
2018-12-04T02:06:44.140Z,0
2018-12-04T02:07:44.153Z,0
2018-12-04T02:08:43.926Z,0
2018-12-04T02:09:44.701Z,0
2018-12-04T02:10:43.965Z,0
2018-12-04T02:11:44.504Z,0
2018-12-04T02:12:44.520Z,0
2018-12-04T02:13:44.010Z,0
2018-12-04T02:14:44.549Z,0
2018-12-04T02:15:44.319Z,0
2018-12-04T02:16:44.333Z,0
2018-12-04T02:17:44.885Z,0
2018-12-04T02:18:44.644Z,0
2018-12-04T02:19:44.674Z,0
2018-12-04T02:20:44.679Z,0
2018-12-04T02:21:44.692Z,0
2018-12-04T02:22:44.982Z,0
2018-12-04T02:23:44.754Z,0
2018-12-04T02:24:45.012Z,0
2018-12-04T02:25:44.522Z,0
2018-12-04T02:26:45.083Z,0
2018-12-04T02:27:45.356Z,0
2018-12-04T02:28:44.846Z,0
2018-12-04T02:29:45.118Z,0
2018-12-04T02:30:44.939Z,0
2018-12-04T02:31:44.655Z,0
2018-12-04T02:32:45.205Z,0
2018-12-04T02:33:44.444Z,0
2018-12-04T02:34:44.986Z,0
2018-12-04T02:35:44.987Z,0
2018-12-04T02:36:45.005Z,0
2018-12-04T02:37:44.764Z,0
2018-12-04T02:38:46.299Z,0
2018-12-04T02:39:45.609Z,0
2018-12-04T02:40:44.859Z,0
2018-12-04T02:41:45.161Z,0
2018-12-04T02:42:45.138Z,0
2018-12-04T02:43:44.936Z,0
2018-12-04T02:44:44.932Z,0
2018-12-04T02:45:45.260Z,0
2018-12-04T02:46:44.699Z,0
2018-12-04T02:47:45.263Z,0
2018-12-04T02:48:45.522Z,0
2018-12-04T02:49:44.768Z,0
2018-12-04T02:50:45.040Z,0
2018-12-04T02:51:44.796Z,0
2018-12-04T02:52:45.883Z,0
2018-12-04T02:53:44.850Z,0
2018-12-04T02:54:45.117Z,0
2018-12-04T02:55:45.133Z,0
2018-12-04T02:56:45.175Z,0
2018-12-04T02:57:44.926Z,0
2018-12-04T02:58:45.721Z,0
2018-12-04T02:59:45.536Z,0
2018-12-04T03:00:45.272Z,0
2018-12-04T03:01:46.043Z,0
2018-12-04T03:02:45.044Z,0
2018-12-04T03:03:45.578Z,0
2018-12-04T03:04:45.579Z,0
2018-12-04T03:05:45.354Z,0
2018-12-04T03:06:45.925Z,0
2018-12-04T03:07:45.918Z,0
2018-12-04T03:08:45.431Z,0
2018-12-04T03:09:45.445Z,0
2018-12-04T03:10:45.988Z,0
2018-12-04T03:11:45.728Z,0
2018-12-04T03:12:45.738Z,0
2018-12-04T03:13:46.036Z,0
2018-12-04T03:14:45.524Z,0
2018-12-04T03:15:45.856Z,0
2018-12-04T03:16:45.559Z,0
2018-12-04T03:17:45.591Z,0
2018-12-04T03:18:46.131Z,0
2018-12-04T03:19:46.153Z,0
2018-12-04T03:20:45.399Z,0
2018-12-04T03:21:45.944Z,0
2018-12-04T03:22:46.242Z,0
2018-12-04T03:23:45.472Z,0
2018-12-04T03:24:46.010Z,0
2018-12-04T03:25:46.318Z,0
2018-12-04T03:26:45.772Z,0
2018-12-04T03:27:45.810Z,0
2018-12-04T03:28:46.087Z,0
2018-12-04T03:29:45.836Z,0
2018-12-04T03:30:46.122Z,0
2018-12-04T03:31:46.420Z,0
2018-12-04T03:32:46.189Z,0
2018-12-04T03:33:46.447Z,0
2018-12-04T03:34:46.460Z,0
2018-12-04T03:35:46.206Z,0
2018-12-04T03:36:45.968Z,0
2018-12-04T03:37:46.014Z,0
2018-12-04T03:38:46.011Z,0
2018-12-04T03:39:46.301Z,0
2018-12-04T03:40:45.800Z,0
2018-12-04T03:41:46.097Z,0
2018-12-04T03:42:45.850Z,0
2018-12-04T03:43:46.647Z,0
2018-12-04T03:44:46.159Z,0
2018-12-04T03:45:46.932Z,0
2018-12-04T03:46:46.512Z,0
2018-12-04T03:47:46.203Z,0
2018-12-04T03:48:46.481Z,0
2018-12-04T03:49:46.507Z,0
2018-12-04T03:50:46.522Z,0
2018-12-04T03:51:47.081Z,0
2018-12-04T03:52:46.800Z,0
2018-12-04T03:53:46.597Z,0
2018-12-04T03:54:46.603Z,0
2018-12-04T03:55:46.389Z,0
2018-12-04T03:56:46.909Z,0
2018-12-04T03:57:46.678Z,0
2018-12-04T03:58:46.450Z,0
2018-12-04T03:59:46.725Z,0
2018-12-04T04:00:46.473Z,0
2018-12-04T04:01:46.226Z,0
2018-12-04T04:02:46.772Z,0
2018-12-04T04:03:46.279Z,0
2018-12-04T04:04:46.801Z,0
2018-12-04T04:05:47.080Z,0
2018-12-04T04:06:46.884Z,0
2018-12-04T04:07:47.123Z,0
2018-12-04T04:08:46.642Z,0
2018-12-04T04:09:47.186Z,0
2018-12-04T04:10:46.935Z,0
2018-12-04T04:11:46.971Z,0
2018-12-04T04:12:46.977Z,0
2018-12-04T04:13:47.018Z,0
2018-12-04T04:14:47.277Z,0
2018-12-04T04:15:47.047Z,0
2018-12-04T04:16:47.333Z,0
2018-12-04T04:17:46.838Z,0
2018-12-04T04:18:47.352Z,0
2018-12-04T04:19:46.859Z,0
2018-12-04T04:20:48.633Z,0
2018-12-04T04:21:47.154Z,0
2018-12-04T04:22:47.447Z,0
2018-12-04T04:23:47.453Z,0
2018-12-04T04:24:47.466Z,0
2018-12-04T04:25:47.238Z,0
2018-12-04T04:26:47.500Z,0
2018-12-04T04:27:47.008Z,0
2018-12-04T04:28:47.035Z,0
2018-12-04T04:29:47.311Z,0
2018-12-04T04:30:47.326Z,0
2018-12-04T04:31:47.350Z,0
2018-12-04T04:32:47.377Z,0
2018-12-04T04:33:46.885Z,0
2018-12-04T04:34:47.427Z,0
2018-12-04T04:35:47.199Z,0
2018-12-04T04:36:47.702Z,0
2018-12-04T04:37:47.468Z,0
2018-12-04T04:38:47.752Z,0
2018-12-04T04:39:47.509Z,0
2018-12-04T04:40:47.275Z,0
2018-12-04T04:41:47.558Z,0
2018-12-04T04:42:47.855Z,0
2018-12-04T04:43:47.073Z,0
2018-12-04T04:44:47.611Z,0
2018-12-04T04:45:47.393Z,0
2018-12-04T04:46:47.670Z,0
2018-12-04T04:47:47.979Z,0
2018-12-04T04:48:47.746Z,0
2018-12-04T04:49:47.718Z,0
2018-12-04T04:50:48.003Z,0
2018-12-04T04:51:47.504Z,0
2018-12-04T04:52:47.816Z,0
2018-12-04T04:53:47.566Z,0
2018-12-04T04:54:47.859Z,0
2018-12-04T04:55:48.096Z,0
2018-12-04T04:56:47.861Z,0
2018-12-04T04:57:47.895Z,0
2018-12-04T04:58:48.427Z,0
2018-12-04T04:59:47.691Z,0
2018-12-04T05:00:48.211Z,0
2018-12-04T05:01:47.726Z,0
2018-12-04T05:02:48.505Z,0
2018-12-04T05:03:48.012Z,0
2018-12-04T05:04:48.019Z,0
2018-12-04T05:05:48.124Z,0
2018-12-04T05:06:48.066Z,0
2018-12-04T05:07:48.646Z,0
2018-12-04T05:08:48.136Z,0
2018-12-04T05:09:47.861Z,0
2018-12-04T05:10:48.138Z,0
2018-12-04T05:11:47.909Z,0
2018-12-04T05:12:48.189Z,0
2018-12-04T05:13:48.474Z,0
2018-12-04T05:14:48.246Z,0
2018-12-04T05:15:48.516Z,0
2018-12-04T05:16:48.006Z,0
2018-12-04T05:17:48.316Z,0
2018-12-04T05:18:48.706Z,0
2018-12-04T05:19:48.077Z,0
2018-12-04T05:20:47.816Z,0
2018-12-04T05:21:48.121Z,0
2018-12-04T05:22:47.870Z,0
2018-12-04T05:23:48.144Z,0
2018-12-04T05:24:48.154Z,0
2018-12-04T05:25:47.937Z,0
2018-12-04T05:26:48.481Z,0
2018-12-04T05:27:47.962Z,0
2018-12-04T05:28:48.265Z,0
2018-12-04T05:29:48.283Z,0
2018-12-04T05:30:48.573Z,0
2018-12-04T05:31:48.855Z,0
2018-12-04T05:32:48.341Z,0
2018-12-04T05:33:48.882Z,0
2018-12-04T05:34:48.886Z,0
2018-12-04T05:35:48.914Z,0
2018-12-04T05:36:48.730Z,0
2018-12-04T05:37:48.698Z,0
2018-12-04T05:38:48.721Z,0
2018-12-04T05:39:48.202Z,0
2018-12-04T05:40:48.751Z,0
2018-12-04T05:41:49.024Z,0
2018-12-04T05:42:48.780Z,0
2018-12-04T05:43:48.840Z,0
2018-12-04T05:44:48.608Z,0
2018-12-04T05:45:49.123Z,0
2018-12-04T05:46:49.126Z,0
2018-12-04T05:47:49.447Z,0
2018-12-04T05:48:48.675Z,0
2018-12-04T05:49:49.192Z,0
2018-12-04T05:50:48.698Z,0
2018-12-04T05:51:49.223Z,0
2018-12-04T05:52:48.995Z,0
2018-12-04T05:53:49.015Z,0
2018-12-04T05:54:49.286Z,0
2018-12-04T05:55:49.060Z,0
2018-12-04T05:56:48.819Z,0
2018-12-04T05:57:48.834Z,0
2018-12-04T05:58:48.864Z,0
2018-12-04T05:59:49.648Z,0
2018-12-04T06:00:49.409Z,0
2018-12-04T06:01:49.160Z,0
2018-12-04T06:02:49.184Z,0
2018-12-04T06:03:49.793Z,0
2018-12-04T06:04:49.242Z,0
2018-12-04T06:05:48.976Z,0
2018-12-04T06:06:49.524Z,0
2018-12-04T06:07:49.309Z,0
2018-12-04T06:08:49.586Z,0
2018-12-04T06:09:49.069Z,0
2018-12-04T06:10:49.092Z,0
2018-12-04T06:11:49.356Z,0
2018-12-04T06:12:49.407Z,0
2018-12-04T06:13:49.672Z,0
2018-12-04T06:14:49.433Z,0
2018-12-04T06:15:49.696Z,0
2018-12-04T06:16:49.476Z,0
2018-12-04T06:17:50.010Z,0
2018-12-04T06:18:48.999Z,0
2018-12-04T06:19:49.792Z,0
2018-12-04T06:20:49.029Z,0
2018-12-04T06:21:49.848Z,0
2018-12-04T06:22:49.857Z,0
2018-12-04T06:23:49.633Z,0
2018-12-04T06:24:49.642Z,0
2018-12-04T06:25:49.402Z,0
2018-12-04T06:26:49.153Z,0
2018-12-04T06:27:49.426Z,0
2018-12-04T06:28:49.957Z,0
2018-12-04T06:29:49.735Z,0
2018-12-04T06:30:49.518Z,0
2018-12-04T06:31:49.789Z,0
2018-12-04T06:32:49.801Z,0
2018-12-04T06:33:50.055Z,0
2018-12-04T06:34:49.849Z,0
2018-12-04T06:35:49.587Z,0
2018-12-04T06:36:49.614Z,0
2018-12-04T06:37:49.628Z,0
2018-12-04T06:38:50.172Z,0
2018-12-04T06:39:49.408Z,0
2018-12-04T06:40:50.216Z,0
2018-12-04T06:41:49.971Z,0
2018-12-04T06:42:49.991Z,0
2018-12-04T06:43:50.515Z,0
2018-12-04T06:44:56.202Z,0
2018-12-04T06:45:49.528Z,0
2018-12-04T06:46:50.086Z,0
2018-12-04T06:47:49.826Z,0
2018-12-04T06:48:49.607Z,0
2018-12-04T06:49:50.143Z,0
2018-12-04T06:50:50.140Z,0
2018-12-04T06:51:49.904Z,0
2018-12-04T06:52:50.474Z,0
2018-12-04T06:53:49.964Z,0
2018-12-04T06:54:49.956Z,0
2018-12-04T06:55:50.257Z,0
2018-12-04T06:56:50.022Z,0
2018-12-04T06:57:50.286Z,0
2018-12-04T06:58:50.575Z,0
2018-12-04T06:59:49.816Z,0
2018-12-04T07:00:50.378Z,0
2018-12-04T07:01:50.104Z,0
2018-12-04T07:02:50.118Z,0
2018-12-04T07:03:50.688Z,0
2018-12-04T07:04:50.192Z,0
2018-12-04T07:05:50.443Z,0
2018-12-04T07:06:50.192Z,0
2018-12-04T07:07:50.484Z,0
2018-12-04T07:08:51.367Z,0
2018-12-04T07:09:50.280Z,0
2018-12-04T07:10:50.545Z,0
2018-12-04T07:11:50.093Z,0
2018-12-04T07:12:50.872Z,0
2018-12-04T07:13:50.331Z,0
2018-12-04T07:14:50.355Z,0
2018-12-04T07:15:50.646Z,0
2018-12-04T07:16:50.907Z,0
2018-12-04T07:17:50.955Z,0
2018-12-04T07:18:50.696Z,0
2018-12-04T07:19:50.740Z,0
2018-12-04T07:20:50.991Z,0
2018-12-04T07:21:51.729Z,0
2018-12-04T07:22:50.772Z,0
2018-12-04T07:23:50.285Z,0
2018-12-04T07:24:50.821Z,0
2018-12-04T07:25:50.320Z,0
2018-12-04T07:26:50.582Z,0
2018-12-04T07:27:50.873Z,0
2018-12-04T07:28:50.642Z,0
2018-12-04T07:29:50.660Z,0
2018-12-04T07:30:50.930Z,0
2018-12-04T07:31:50.435Z,0
2018-12-04T07:32:50.988Z,0
2018-12-04T07:33:51.018Z,5
2018-12-04T07:34:51.262Z,5
2018-12-04T07:35:51.037Z,5
2018-12-04T07:36:50.813Z,5
2018-12-04T07:37:50.624Z,5
2018-12-04T07:38:50.574Z,5
2018-12-04T07:39:51.114Z,5
2018-12-04T07:40:50.617Z,5
2018-12-04T07:41:50.944Z,5
2018-12-04T07:42:50.661Z,5
2018-12-04T07:43:50.925Z,5
2018-12-04T07:44:50.966Z,5
2018-12-04T07:45:50.972Z,5
2018-12-04T07:46:51.526Z,5
2018-12-04T07:47:51.017Z,5
2018-12-04T07:48:51.554Z,5
2018-12-04T07:49:51.059Z,5
2018-12-04T07:50:51.333Z,5
2018-12-04T07:51:51.357Z,5
2018-12-04T07:52:51.378Z,5
2018-12-04T07:53:51.126Z,5
2018-12-04T07:54:51.408Z,5
2018-12-04T07:55:51.176Z,10
2018-12-04T07:56:50.927Z,10
2018-12-04T07:57:51.739Z,10
2018-12-04T07:58:51.222Z,10
2018-12-04T07:59:51.247Z,10
2018-12-04T08:00:51.518Z,10
2018-12-04T08:01:51.815Z,10
2018-12-04T08:02:51.571Z,10
2018-12-04T08:03:51.596Z,10
2018-12-04T08:04:51.081Z,10
2018-12-04T08:05:51.378Z,10
2018-12-04T08:06:51.430Z,10
2018-12-04T08:07:51.932Z,10
2018-12-04T08:08:51.934Z,10
2018-12-04T08:09:51.711Z,10
2018-12-04T08:10:51.719Z,10
2018-12-04T08:11:52.003Z,10
2018-12-04T08:12:51.505Z,10
2018-12-04T08:13:52.046Z,10
2018-12-04T08:14:51.540Z,10
2018-12-04T08:15:52.358Z,10
2018-12-04T08:16:51.579Z,10
2018-12-04T08:17:52.200Z,10
2018-12-04T08:18:51.620Z,10
2018-12-04T08:19:52.170Z,10
2018-12-04T08:20:51.930Z,10
2018-12-04T08:21:51.700Z,10
2018-12-04T08:22:51.711Z,10
2018-12-04T08:23:51.461Z,10
2018-12-04T08:24:51.992Z,10
2018-12-04T08:25:52.264Z,10
2018-12-04T08:26:51.535Z,10
2018-12-04T08:27:52.059Z,10
2018-12-04T08:28:52.335Z,10
2018-12-04T08:29:52.381Z,10
2018-12-04T08:30:52.125Z,10
2018-12-04T08:31:52.130Z,10
2018-12-04T08:32:52.157Z,10
2018-12-04T08:33:52.180Z,15
2018-12-04T08:34:51.941Z,15
2018-12-04T08:35:52.227Z,15
2018-12-04T08:36:52.514Z,15
2018-12-04T08:37:51.991Z,15
2018-12-04T08:38:52.009Z,15
2018-12-04T08:39:52.034Z,15
2018-12-04T08:40:52.058Z,15
2018-12-04T08:41:52.223Z,15
2018-12-04T08:42:51.820Z,15
2018-12-04T08:43:52.108Z,15
2018-12-04T08:44:52.670Z,15
2018-12-04T08:45:52.155Z,15
2018-12-04T08:46:52.159Z,15
2018-12-04T08:47:52.183Z,15
2018-12-04T08:48:52.989Z,15
2018-12-04T08:49:52.495Z,20
2018-12-04T08:50:52.250Z,20
2018-12-04T08:51:52.836Z,20
2018-12-04T08:52:52.286Z,15
2018-12-04T08:53:52.312Z,15
2018-12-04T08:54:52.638Z,15
2018-12-04T08:55:52.918Z,15
2018-12-04T08:56:52.617Z,15
2018-12-04T08:57:52.891Z,20
2018-12-04T08:58:52.934Z,20
2018-12-04T08:59:52.696Z,20
2018-12-04T09:00:52.951Z,20
2018-12-04T09:01:52.731Z,15
2018-12-04T09:02:52.494Z,20
2018-12-04T09:03:52.488Z,20
2018-12-04T09:04:52.255Z,20
2018-12-04T09:05:52.829Z,20
2018-12-04T09:06:53.114Z,15
2018-12-04T09:07:53.113Z,15
2018-12-04T09:08:53.173Z,15
2018-12-04T09:09:52.896Z,20
2018-12-04T09:10:52.638Z,15
2018-12-04T09:11:53.219Z,15
2018-12-04T09:12:53.210Z,15
2018-12-04T09:13:52.960Z,15
2018-12-04T09:14:52.715Z,15
2018-12-04T09:15:52.737Z,15
2018-12-04T09:16:53.844Z,15
2018-12-04T09:17:52.768Z,15
2018-12-04T09:18:53.245Z,15
2018-12-04T09:19:53.677Z,15
2018-12-04T09:20:53.053Z,15
2018-12-04T09:21:53.393Z,15
2018-12-04T09:22:52.971Z,20
2018-12-04T09:23:53.814Z,20
2018-12-04T09:24:53.444Z,20
2018-12-04T09:25:53.748Z,20
2018-12-04T09:26:53.467Z,20
2018-12-04T09:27:53.725Z,20
2018-12-04T09:28:53.693Z,20
2018-12-04T09:29:53.429Z,20
2018-12-04T09:30:53.291Z,20
2018-12-04T09:31:53.573Z,20
2018-12-04T09:32:53.073Z,20
2018-12-04T09:33:53.441Z,20
2018-12-04T09:34:53.111Z,20
2018-12-04T09:35:53.905Z,25
2018-12-04T09:36:53.471Z,25
2018-12-04T09:37:53.425Z,25
2018-12-04T09:38:53.526Z,25
2018-12-04T09:39:53.467Z,25
2018-12-04T09:40:53.249Z,25
2018-12-04T09:41:53.253Z,25
2018-12-04T09:42:53.270Z,25
2018-12-04T09:43:53.293Z,20
2018-12-04T09:44:53.314Z,25
2018-12-04T09:45:53.834Z,25
2018-12-04T09:46:53.348Z,25
2018-12-04T09:47:53.889Z,25
2018-12-04T09:48:53.401Z,20
2018-12-04T09:49:53.662Z,20
2018-12-04T09:50:53.691Z,20
2018-12-04T09:51:53.713Z,20
2018-12-04T09:52:53.999Z,20
2018-12-04T09:53:58.958Z,20
2018-12-04T09:54:53.502Z,20
2018-12-04T09:55:53.517Z,20
2018-12-04T09:56:53.805Z,20
2018-12-04T09:57:53.827Z,20
2018-12-04T09:58:53.594Z,20
2018-12-04T09:59:53.602Z,20
2018-12-04T10:00:53.882Z,20
2018-12-04T10:01:53.908Z,20
2018-12-04T10:02:53.935Z,25
2018-12-04T10:03:53.678Z,30
2018-12-04T10:04:54.226Z,30
2018-12-04T10:05:54.237Z,25
2018-12-04T10:06:53.989Z,25
2018-12-04T10:07:54.040Z,25
2018-12-04T10:08:54.045Z,30
2018-12-04T10:09:54.055Z,35
2018-12-04T10:10:54.333Z,30
2018-12-04T10:11:54.349Z,25
2018-12-04T10:12:54.161Z,25
2018-12-04T10:13:54.389Z,30
2018-12-04T10:14:54.160Z,30
2018-12-04T10:15:54.180Z,30
2018-12-04T10:16:53.935Z,30
2018-12-04T10:17:53.961Z,30
2018-12-04T10:18:56.575Z,30
2018-12-04T10:19:54.525Z,30
2018-12-04T10:20:54.269Z,25
2018-12-04T10:21:54.576Z,25
2018-12-04T10:22:54.099Z,25
2018-12-04T10:23:54.079Z,30
2018-12-04T10:24:54.397Z,25
2018-12-04T10:25:54.116Z,25
2018-12-04T10:26:54.136Z,25
2018-12-04T10:27:54.171Z,25
2018-12-04T10:28:54.454Z,30
2018-12-04T10:29:54.201Z,30
2018-12-04T10:30:54.765Z,35
2018-12-04T10:32:00.660Z,30
2018-12-04T10:32:54.564Z,25
2018-12-04T10:33:54.555Z,25
2018-12-04T10:34:54.300Z,20
2018-12-04T10:35:54.318Z,25
2018-12-04T10:36:54.377Z,25
2018-12-04T10:37:54.092Z,35
2018-12-04T10:38:54.363Z,35
2018-12-04T10:39:54.403Z,35
2018-12-04T10:40:54.676Z,30
2018-12-04T10:41:54.427Z,25
2018-12-04T10:42:54.733Z,35
2018-12-04T10:43:54.731Z,30
2018-12-04T10:44:54.500Z,35
2018-12-04T10:45:54.772Z,35
2018-12-04T10:46:54.276Z,25
2018-12-04T10:47:55.059Z,25
2018-12-04T10:48:54.830Z,25
2018-12-04T10:49:54.333Z,25
2018-12-04T10:50:54.860Z,25
2018-12-04T10:51:54.888Z,20
2018-12-04T10:52:54.913Z,20
2018-12-04T10:53:54.929Z,20
2018-12-04T10:54:54.965Z,20
2018-12-04T10:55:54.975Z,20
2018-12-04T10:56:54.993Z,25
2018-12-04T10:57:54.496Z,20
2018-12-04T10:58:55.044Z,20
2018-12-04T10:59:54.534Z,20
2018-12-04T11:00:54.553Z,20
2018-12-04T11:01:55.343Z,20
2018-12-04T11:02:55.352Z,20
2018-12-04T11:03:55.145Z,25
2018-12-04T11:04:55.404Z,25
2018-12-04T11:05:54.640Z,20
2018-12-04T11:06:55.464Z,25
2018-12-04T11:07:54.706Z,20
2018-12-04T11:08:54.977Z,20
2018-12-04T11:09:54.733Z,20
2018-12-04T11:10:55.532Z,20
2018-12-04T11:11:55.022Z,20
2018-12-04T11:12:55.558Z,20
2018-12-04T11:13:55.573Z,20
2018-12-04T11:14:55.612Z,20
2018-12-04T11:15:55.628Z,20
2018-12-04T11:16:55.147Z,20
2018-12-04T11:17:55.419Z,20
2018-12-04T11:18:55.431Z,20
2018-12-04T11:19:54.943Z,20
2018-12-04T11:20:55.450Z,20
2018-12-04T11:21:55.223Z,20
2018-12-04T11:22:55.503Z,20
2018-12-04T11:23:56.048Z,20
2018-12-04T11:24:55.819Z,20
2018-12-04T11:25:55.825Z,20
2018-12-04T11:26:55.859Z,20
2018-12-04T11:27:55.351Z,20
2018-12-04T11:28:55.350Z,20
2018-12-04T11:29:55.124Z,20
2018-12-04T11:30:55.909Z,20
2018-12-04T11:31:55.691Z,20
2018-12-04T11:32:55.713Z,20
2018-12-04T11:33:55.463Z,20
2018-12-04T11:34:55.482Z,20
2018-12-04T11:35:55.757Z,20
2018-12-04T11:36:55.523Z,20
2018-12-04T11:37:55.540Z,20
2018-12-04T11:38:55.823Z,20
2018-12-04T11:39:55.586Z,20
2018-12-04T11:40:55.856Z,20
2018-12-04T11:41:55.879Z,20
2018-12-04T11:42:55.638Z,20
2018-12-04T11:43:56.227Z,20
2018-12-04T11:44:55.702Z,20
2018-12-04T11:45:55.960Z,25
2018-12-04T11:46:55.481Z,25
2018-12-04T11:47:56.281Z,20
2018-12-04T11:48:55.769Z,20
2018-12-04T11:49:55.794Z,20
2018-12-04T11:51:00.108Z,20
2018-12-04T11:51:56.088Z,25
2018-12-04T11:52:55.834Z,25
2018-12-04T11:53:56.114Z,25
2018-12-04T11:54:56.136Z,25
2018-12-04T11:55:55.951Z,35
2018-12-04T11:56:55.654Z,30
2018-12-04T11:57:55.940Z,30
2018-12-04T11:58:56.477Z,25
2018-12-04T11:59:56.004Z,20
2018-12-04T12:00:56.776Z,25
2018-12-04T12:01:56.021Z,25
2018-12-04T12:02:56.299Z,20
2018-12-04T12:03:55.803Z,20
2018-12-04T12:04:56.087Z,20
2018-12-04T12:05:56.602Z,20
2018-12-04T12:06:56.391Z,20
2018-12-04T12:07:56.641Z,25
2018-12-04T12:08:56.164Z,20
2018-12-04T12:09:56.470Z,25
2018-12-04T12:10:56.468Z,25
2018-12-04T12:11:56.250Z,25
2018-12-04T12:12:56.486Z,25
2018-12-04T12:13:56.002Z,25
2018-12-04T12:14:56.534Z,25
2018-12-04T12:15:56.559Z,30
2018-12-04T12:16:56.585Z,40
2018-12-04T12:17:56.858Z,45
2018-12-04T12:18:56.358Z,45
2018-12-04T12:19:56.948Z,40
2018-12-04T12:20:56.924Z,35
2018-12-04T12:21:56.675Z,30
2018-12-04T12:22:56.705Z,20
2018-12-04T12:23:56.460Z,25
2018-12-04T12:24:56.743Z,35
2018-12-04T12:25:56.483Z,40
2018-12-04T12:26:56.791Z,35
2018-12-04T12:27:56.789Z,25
2018-12-04T12:28:56.546Z,15
2018-12-04T12:29:57.099Z,15
2018-12-04T12:30:57.115Z,15
2018-12-04T12:31:57.179Z,15
2018-12-04T12:32:57.167Z,15
2018-12-04T12:33:56.396Z,15
2018-12-04T12:34:56.935Z,15
2018-12-04T12:35:57.212Z,15
2018-12-04T12:36:56.979Z,15
2018-12-04T12:37:56.738Z,15
2018-12-04T12:38:57.270Z,15
2018-12-04T12:39:57.033Z,15
2018-12-04T12:40:56.794Z,15
2018-12-04T12:41:57.326Z,15
2018-12-04T12:42:57.097Z,15
2018-12-04T12:44:57.144Z,20
2018-12-04T12:45:56.907Z,20
2018-12-04T12:46:57.183Z,20
2018-12-04T12:47:57.189Z,20
2018-12-04T12:48:56.961Z,20
2018-12-04T12:49:56.998Z,25
2018-12-04T12:50:57.527Z,25
2018-12-04T12:51:57.527Z,25
2018-12-04T12:52:57.542Z,25
2018-12-04T12:53:57.832Z,25
2018-12-04T12:54:57.325Z,25
2018-12-04T12:55:57.344Z,25
2018-12-04T12:56:57.133Z,25
2018-12-04T12:57:57.994Z,25
2018-12-04T12:58:57.407Z,25
2018-12-04T12:59:57.431Z,20
2018-12-04T13:00:57.466Z,20
2018-12-04T13:01:57.496Z,20
2018-12-04T13:02:57.527Z,20
2018-12-04T13:03:57.794Z,20
2018-12-04T13:04:57.007Z,20
2018-12-04T13:05:57.307Z,20
2018-12-04T13:06:57.334Z,20
2018-12-04T13:07:57.330Z,20
2018-12-04T13:08:57.111Z,20
2018-12-04T13:09:57.677Z,20
2018-12-04T13:10:58.661Z,20
2018-12-04T13:11:57.683Z,20
2018-12-04T13:12:57.425Z,20
2018-12-04T13:13:57.714Z,20
2018-12-04T13:14:57.755Z,20
2018-12-04T13:15:57.508Z,15
2018-12-04T13:16:57.781Z,15
2018-12-04T13:17:57.553Z,15
2018-12-04T13:18:58.064Z,15
2018-12-04T13:19:57.857Z,15
2018-12-04T13:20:57.345Z,15
2018-12-04T13:21:57.627Z,15
2018-12-04T13:22:57.905Z,15
2018-12-04T13:23:57.410Z,15
2018-12-04T13:24:57.935Z,15
2018-12-04T13:25:58.002Z,15
2018-12-04T13:26:57.987Z,15
2018-12-04T13:27:57.982Z,15
2018-12-04T13:28:58.124Z,15
2018-12-04T13:29:57.777Z,15
2018-12-04T13:30:58.333Z,15
2018-12-04T13:31:57.819Z,15
2018-12-04T13:32:58.376Z,15
2018-12-04T13:33:57.834Z,15
2018-12-04T13:34:57.890Z,15
2018-12-04T13:35:58.227Z,15
2018-12-04T13:36:57.681Z,15
2018-12-04T13:37:58.024Z,10
2018-12-04T13:38:58.760Z,10
2018-12-04T13:39:58.285Z,10
2018-12-04T13:40:58.767Z,10
2018-12-04T13:41:59.442Z,15
2018-12-04T13:42:58.051Z,10
2018-12-04T13:43:58.041Z,10
2018-12-04T13:44:58.872Z,10
2018-12-04T13:45:58.385Z,10
2018-12-04T13:46:58.652Z,10
2018-12-04T13:48:00.726Z,10
2018-12-04T13:48:58.466Z,10
2018-12-04T13:49:58.468Z,10
2018-12-04T13:50:57.952Z,10
2018-12-04T13:51:58.291Z,10
2018-12-04T13:52:58.798Z,10
2018-12-04T13:53:58.243Z,10
2018-12-04T13:54:58.789Z,10
2018-12-04T13:55:58.861Z,15
2018-12-04T13:56:58.617Z,15
2018-12-04T13:58:00.143Z,15
2018-12-04T13:58:58.383Z,10
2018-12-04T13:59:58.381Z,10
2018-12-04T14:00:58.945Z,10
2018-12-04T14:01:58.695Z,10
2018-12-04T14:02:58.185Z,10
2018-12-04T14:03:58.707Z,15
2018-12-04T14:04:58.744Z,15
2018-12-04T14:05:59.698Z,15
2018-12-04T14:06:58.846Z,10
2018-12-04T14:07:58.841Z,10
2018-12-04T14:08:58.600Z,10
2018-12-04T14:09:58.853Z,10
2018-12-04T14:10:59.116Z,10
2018-12-04T14:11:58.887Z,10
2018-12-04T14:12:58.424Z,10
2018-12-04T14:13:59.295Z,10
2018-12-04T14:14:58.488Z,10
2018-12-04T14:16:01.279Z,10
2018-12-04T14:16:59.004Z,10
2018-12-04T14:17:58.742Z,10
2018-12-04T14:18:59.356Z,10
2018-12-04T14:19:59.337Z,10
2018-12-04T14:20:58.847Z,10
2018-12-04T14:21:58.884Z,10
2018-12-04T14:22:58.844Z,10
2018-12-04T14:23:59.152Z,10
2018-12-04T14:24:58.961Z,10
2018-12-04T14:25:59.166Z,10
2018-12-04T14:26:59.188Z,5
2018-12-04T14:27:59.216Z,5
2018-12-04T14:28:59.239Z,5
2018-12-04T14:29:59.518Z,5
2018-12-04T14:30:59.591Z,5
2018-12-04T14:31:59.036Z,5
2018-12-04T14:32:59.575Z,5
2018-12-04T14:33:58.859Z,5